sensor_id;sensor_type;location;lat;lon;timestamp;P1;durP1;ratioP1;P2;durP2;ratioP2
73954;SDS011;62306;52.516;13.290;2022-07-23T00:01:41;12.30;;;6.15;;
73954;SDS011;62306;52.516;13.290;2022-07-23T00:04:08;8.10;;;6.50;;
73954;SDS011;62306;52.516;13.290;2022-07-23T00:06:35;12.73;;;7.13;;
73954;SDS011;62306;52.516;13.290;2022-07-23T00:09:02;8.45;;;6.25;;
73954;SDS011;62306;52.516;13.290;2022-07-23T00:11:29;10.30;;;6.57;;
73954;SDS011;62306;52.516;13.290;2022-07-23T00:13:56;13.80;;;6.43;;
73954;SDS011;62306;52.516;13.290;2022-07-23T00:16:23;11.38;;;6.18;;
73954;SDS011;62306;52.516;13.290;2022-07-23T00:18:51;12.98;;;6.43;;
73954;SDS011;62306;52.516;13.290;2022-07-23T00:21:18;10.77;;;6.05;;
73954;SDS011;62306;52.516;13.290;2022-07-23T00:23:45;9.23;;;6.90;;
73954;SDS011;62306;52.516;13.290;2022-07-23T00:26:12;9.32;;;6.45;;
73954;SDS011;62306;52.516;13.290;2022-07-23T00:28:38;14.20;;;8.18;;
73954;SDS011;62306;52.516;13.290;2022-07-23T00:31:05;11.82;;;7.43;;
73954;SDS011;62306;52.516;13.290;2022-07-23T00:33:32;10.43;;;6.93;;
73954;SDS011;62306;52.516;13.290;2022-07-23T00:36:00;10.02;;;6.93;;
73954;SDS011;62306;52.516;13.290;2022-07-23T00:38:27;17.92;;;7.47;;
73954;SDS011;62306;52.516;13.290;2022-07-23T00:40:54;9.75;;;6.93;;
73954;SDS011;62306;52.516;13.290;2022-07-23T00:43:21;11.63;;;6.75;;
73954;SDS011;62306;52.516;13.290;2022-07-23T00:45:49;8.48;;;6.82;;
73954;SDS011;62306;52.516;13.290;2022-07-23T00:48:16;12.10;;;6.57;;
73954;SDS011;62306;52.516;13.290;2022-07-23T00:50:43;11.40;;;6.68;;
73954;SDS011;62306;52.516;13.290;2022-07-23T00:53:11;13.05;;;7.30;;
73954;SDS011;62306;52.516;13.290;2022-07-23T00:55:39;10.18;;;7.40;;
73954;SDS011;62306;52.516;13.290;2022-07-23T00:58:06;9.88;;;6.63;;
73954;SDS011;62306;52.516;13.290;2022-07-23T01:00:34;14.20;;;6.78;;
73954;SDS011;62306;52.516;13.290;2022-07-23T01:03:01;11.85;;;7.47;;
73954;SDS011;62306;52.516;13.290;2022-07-23T01:05:28;10.95;;;7.43;;
73954;SDS011;62306;52.516;13.290;2022-07-23T01:07:55;8.70;;;7.55;;
73954;SDS011;62306;52.516;13.290;2022-07-23T01:10:24;11.70;;;6.50;;
73954;SDS011;62306;52.516;13.290;2022-07-23T01:12:57;9.70;;;6.80;;
73954;SDS011;62306;52.516;13.290;2022-07-23T01:15:24;11.88;;;7.57;;
73954;SDS011;62306;52.516;13.290;2022-07-23T01:17:51;12.27;;;7.03;;
73954;SDS011;62306;52.516;13.290;2022-07-23T01:20:18;10.48;;;7.13;;
73954;SDS011;62306;52.516;13.290;2022-07-23T01:22:47;11.23;;;7.97;;
73954;SDS011;62306;52.516;13.290;2022-07-23T01:25:14;13.02;;;7.13;;
73954;SDS011;62306;52.516;13.290;2022-07-23T01:27:41;12.52;;;8.00;;
73954;SDS011;62306;52.516;13.290;2022-07-23T01:30:09;11.88;;;7.05;;
73954;SDS011;62306;52.516;13.290;2022-07-23T01:32:36;11.20;;;7.18;;
73954;SDS011;62306;52.516;13.290;2022-07-23T01:35:04;11.73;;;6.72;;
73954;SDS011;62306;52.516;13.290;2022-07-23T01:37:32;10.68;;;6.53;;
73954;SDS011;62306;52.516;13.290;2022-07-23T01:40:00;12.55;;;7.65;;
73954;SDS011;62306;52.516;13.290;2022-07-23T01:42:27;10.73;;;7.32;;
73954;SDS011;62306;52.516;13.290;2022-07-23T01:44:54;10.52;;;7.53;;
73954;SDS011;62306;52.516;13.290;2022-07-23T01:47:21;10.40;;;6.72;;
73954;SDS011;62306;52.516;13.290;2022-07-23T01:49:47;11.98;;;7.95;;
73954;SDS011;62306;52.516;13.290;2022-07-23T01:52:14;10.68;;;6.70;;
73954;SDS011;62306;52.516;13.290;2022-07-23T01:54:41;13.68;;;7.85;;
73954;SDS011;62306;52.516;13.290;2022-07-23T01:57:10;14.35;;;7.78;;
73954;SDS011;62306;52.516;13.290;2022-07-23T01:59:37;17.92;;;7.05;;
73954;SDS011;62306;52.516;13.290;2022-07-23T02:02:04;14.25;;;6.97;;
73954;SDS011;62306;52.516;13.290;2022-07-23T02:04:31;13.23;;;6.97;;
73954;SDS011;62306;52.516;13.290;2022-07-23T02:07:01;12.50;;;6.55;;
73954;SDS011;62306;52.516;13.290;2022-07-23T02:09:29;9.25;;;6.65;;
73954;SDS011;62306;52.516;13.290;2022-07-23T02:11:56;10.93;;;7.18;;
73954;SDS011;62306;52.516;13.290;2022-07-23T02:14:25;9.93;;;6.60;;
73954;SDS011;62306;52.516;13.290;2022-07-23T02:16:52;12.90;;;7.50;;
73954;SDS011;62306;52.516;13.290;2022-07-23T02:19:19;9.85;;;6.43;;
73954;SDS011;62306;52.516;13.290;2022-07-23T02:21:46;9.77;;;6.82;;
73954;SDS011;62306;52.516;13.290;2022-07-23T02:24:13;11.50;;;7.40;;
73954;SDS011;62306;52.516;13.290;2022-07-23T02:26:40;9.98;;;6.82;;
73954;SDS011;62306;52.516;13.290;2022-07-23T02:29:07;13.70;;;6.63;;
73954;SDS011;62306;52.516;13.290;2022-07-23T02:31:35;15.98;;;7.18;;
73954;SDS011;62306;52.516;13.290;2022-07-23T02:34:02;15.80;;;7.18;;
73954;SDS011;62306;52.516;13.290;2022-07-23T02:36:29;11.68;;;6.80;;
73954;SDS011;62306;52.516;13.290;2022-07-23T02:38:56;13.63;;;7.38;;
73954;SDS011;62306;52.516;13.290;2022-07-23T02:41:23;9.65;;;7.13;;
73954;SDS011;62306;52.516;13.290;2022-07-23T02:43:50;13.00;;;6.93;;
73954;SDS011;62306;52.516;13.290;2022-07-23T02:46:16;11.13;;;6.72;;
73954;SDS011;62306;52.516;13.290;2022-07-23T02:48:45;10.88;;;6.78;;
73954;SDS011;62306;52.516;13.290;2022-07-23T02:51:11;11.70;;;7.15;;
73954;SDS011;62306;52.516;13.290;2022-07-23T02:53:38;14.13;;;7.25;;
73954;SDS011;62306;52.516;13.290;2022-07-23T02:56:05;11.10;;;7.05;;
73954;SDS011;62306;52.516;13.290;2022-07-23T02:58:32;11.95;;;7.30;;
73954;SDS011;62306;52.516;13.290;2022-07-23T03:00:59;14.60;;;7.45;;
73954;SDS011;62306;52.516;13.290;2022-07-23T03:03:26;9.27;;;6.78;;
73954;SDS011;62306;52.516;13.290;2022-07-23T03:05:54;13.93;;;6.88;;
73954;SDS011;62306;52.516;13.290;2022-07-23T03:08:21;10.32;;;6.88;;
73954;SDS011;62306;52.516;13.290;2022-07-23T03:10:47;11.82;;;7.43;;
73954;SDS011;62306;52.516;13.290;2022-07-23T03:13:14;9.80;;;7.13;;
73954;SDS011;62306;52.516;13.290;2022-07-23T03:15:41;10.80;;;6.18;;
73954;SDS011;62306;52.516;13.290;2022-07-23T03:18:08;10.32;;;6.10;;
73954;SDS011;62306;52.516;13.290;2022-07-23T03:20:35;13.48;;;6.10;;
73954;SDS011;62306;52.516;13.290;2022-07-23T03:23:03;8.88;;;6.28;;
73954;SDS011;62306;52.516;13.290;2022-07-23T03:25:30;12.50;;;6.53;;
73954;SDS011;62306;52.516;13.290;2022-07-23T03:27:57;11.25;;;5.80;;
73954;SDS011;62306;52.516;13.290;2022-07-23T03:30:24;9.35;;;5.68;;
73954;SDS011;62306;52.516;13.290;2022-07-23T03:32:51;9.57;;;5.68;;
73954;SDS011;62306;52.516;13.290;2022-07-23T03:35:17;8.25;;;4.97;;
73954;SDS011;62306;52.516;13.290;2022-07-23T03:37:44;7.53;;;5.18;;
73954;SDS011;62306;52.516;13.290;2022-07-23T03:40:13;8.73;;;5.28;;
73954;SDS011;62306;52.516;13.290;2022-07-23T03:42:39;17.48;;;6.60;;
73954;SDS011;62306;52.516;13.290;2022-07-23T03:45:07;11.55;;;5.60;;
73954;SDS011;62306;52.516;13.290;2022-07-23T03:47:34;6.70;;;5.07;;
73954;SDS011;62306;52.516;13.290;2022-07-23T03:50:02;10.95;;;5.57;;
73954;SDS011;62306;52.516;13.290;2022-07-23T03:52:29;13.27;;;6.15;;
73954;SDS011;62306;52.516;13.290;2022-07-23T03:54:55;8.55;;;4.35;;
73954;SDS011;62306;52.516;13.290;2022-07-23T03:57:24;9.23;;;4.78;;
73954;SDS011;62306;52.516;13.290;2022-07-23T03:59:51;8.35;;;4.22;;
73954;SDS011;62306;52.516;13.290;2022-07-23T04:02:18;9.65;;;4.25;;
73954;SDS011;62306;52.516;13.290;2022-07-23T04:04:44;8.10;;;4.10;;
73954;SDS011;62306;52.516;13.290;2022-07-23T04:07:11;5.75;;;3.95;;
73954;SDS011;62306;52.516;13.290;2022-07-23T04:09:38;15.20;;;4.25;;
73954;SDS011;62306;52.516;13.290;2022-07-23T04:12:07;7.13;;;3.97;;
73954;SDS011;62306;52.516;13.290;2022-07-23T04:14:35;12.52;;;4.20;;
73954;SDS011;62306;52.516;13.290;2022-07-23T04:17:02;9.07;;;3.85;;
73954;SDS011;62306;52.516;13.290;2022-07-23T04:19:29;5.88;;;3.88;;
73954;SDS011;62306;52.516;13.290;2022-07-23T04:21:56;6.95;;;4.13;;
73954;SDS011;62306;52.516;13.290;2022-07-23T04:24:23;7.85;;;3.72;;
73954;SDS011;62306;52.516;13.290;2022-07-23T04:26:50;8.05;;;3.65;;
73954;SDS011;62306;52.516;13.290;2022-07-23T04:29:18;8.68;;;4.00;;
73954;SDS011;62306;52.516;13.290;2022-07-23T04:31:46;11.10;;;3.80;;
73954;SDS011;62306;52.516;13.290;2022-07-23T04:34:13;14.35;;;4.45;;
73954;SDS011;62306;52.516;13.290;2022-07-23T04:36:40;14.15;;;4.43;;
73954;SDS011;62306;52.516;13.290;2022-07-23T04:39:07;15.02;;;4.90;;
73954;SDS011;62306;52.516;13.290;2022-07-23T04:41:33;14.80;;;4.45;;
73954;SDS011;62306;52.516;13.290;2022-07-23T04:44:00;13.07;;;4.28;;
73954;SDS011;62306;52.516;13.290;2022-07-23T04:46:27;9.23;;;4.53;;
73954;SDS011;62306;52.516;13.290;2022-07-23T04:48:56;9.52;;;3.88;;
73954;SDS011;62306;52.516;13.290;2022-07-23T04:51:23;9.70;;;4.53;;
73954;SDS011;62306;52.516;13.290;2022-07-23T04:53:49;14.07;;;4.30;;
73954;SDS011;62306;52.516;13.290;2022-07-23T04:56:16;7.07;;;3.72;;
73954;SDS011;62306;52.516;13.290;2022-07-23T04:58:43;12.38;;;4.20;;
73954;SDS011;62306;52.516;13.290;2022-07-23T05:01:10;13.05;;;3.85;;
73954;SDS011;62306;52.516;13.290;2022-07-23T05:03:37;14.55;;;4.32;;
73954;SDS011;62306;52.516;13.290;2022-07-23T05:06:05;8.07;;;3.75;;
73954;SDS011;62306;52.516;13.290;2022-07-23T05:08:32;15.35;;;4.43;;
73954;SDS011;62306;52.516;13.290;2022-07-23T05:10:59;11.23;;;5.00;;
73954;SDS011;62306;52.516;13.290;2022-07-23T05:13:26;8.23;;;5.32;;
73954;SDS011;62306;52.516;13.290;2022-07-23T05:15:53;10.57;;;4.53;;
73954;SDS011;62306;52.516;13.290;2022-07-23T05:18:19;9.25;;;4.65;;
73954;SDS011;62306;52.516;13.290;2022-07-23T05:20:46;11.07;;;4.60;;
73954;SDS011;62306;52.516;13.290;2022-07-23T05:23:15;18.45;;;9.38;;
73954;SDS011;62306;52.516;13.290;2022-07-23T05:25:42;8.07;;;4.07;;
73954;SDS011;62306;52.516;13.290;2022-07-23T05:28:08;10.30;;;4.07;;
73954;SDS011;62306;52.516;13.290;2022-07-23T05:30:35;16.00;;;5.03;;
73954;SDS011;62306;52.516;13.290;2022-07-23T05:33:02;7.68;;;4.85;;
73954;SDS011;62306;52.516;13.290;2022-07-23T05:35:29;9.73;;;5.20;;
73954;SDS011;62306;52.516;13.290;2022-07-23T05:37:56;9.55;;;4.57;;
73954;SDS011;62306;52.516;13.290;2022-07-23T05:40:24;9.52;;;4.28;;
73954;SDS011;62306;52.516;13.290;2022-07-23T05:42:51;8.82;;;4.10;;
73954;SDS011;62306;52.516;13.290;2022-07-23T05:45:18;14.60;;;3.90;;
73954;SDS011;62306;52.516;13.290;2022-07-23T05:47:45;8.48;;;3.72;;
73954;SDS011;62306;52.516;13.290;2022-07-23T05:50:14;8.05;;;3.90;;
73954;SDS011;62306;52.516;13.290;2022-07-23T05:52:41;8.93;;;4.10;;
73954;SDS011;62306;52.516;13.290;2022-07-23T05:55:09;9.20;;;3.92;;
73954;SDS011;62306;52.516;13.290;2022-07-23T05:57:38;7.95;;;3.85;;
73954;SDS011;62306;52.516;13.290;2022-07-23T06:00:06;9.70;;;3.88;;
73954;SDS011;62306;52.516;13.290;2022-07-23T06:02:35;10.13;;;4.28;;
73954;SDS011;62306;52.516;13.290;2022-07-23T06:05:03;8.00;;;3.63;;
73954;SDS011;62306;52.516;13.290;2022-07-23T06:07:30;8.80;;;3.95;;
73954;SDS011;62306;52.516;13.290;2022-07-23T06:09:57;10.20;;;4.25;;
73954;SDS011;62306;52.516;13.290;2022-07-23T06:12:24;13.80;;;4.72;;
73954;SDS011;62306;52.516;13.290;2022-07-23T06:14:52;11.57;;;4.63;;
73954;SDS011;62306;52.516;13.290;2022-07-23T06:17:19;10.15;;;4.95;;
73954;SDS011;62306;52.516;13.290;2022-07-23T06:19:46;14.68;;;5.10;;
73954;SDS011;62306;52.516;13.290;2022-07-23T06:22:13;11.05;;;5.28;;
73954;SDS011;62306;52.516;13.290;2022-07-23T06:24:40;9.38;;;4.60;;
73954;SDS011;62306;52.516;13.290;2022-07-23T06:27:06;7.85;;;4.93;;
73954;SDS011;62306;52.516;13.290;2022-07-23T06:29:33;7.55;;;4.80;;
73954;SDS011;62306;52.516;13.290;2022-07-23T06:32:02;10.00;;;4.70;;
73954;SDS011;62306;52.516;13.290;2022-07-23T06:34:28;9.30;;;4.38;;
73954;SDS011;62306;52.516;13.290;2022-07-23T06:36:55;13.68;;;5.10;;
73954;SDS011;62306;52.516;13.290;2022-07-23T06:39:22;9.27;;;5.07;;
73954;SDS011;62306;52.516;13.290;2022-07-23T06:41:49;11.50;;;4.50;;
73954;SDS011;62306;52.516;13.290;2022-07-23T06:44:16;10.70;;;5.03;;
73954;SDS011;62306;52.516;13.290;2022-07-23T06:46:43;9.23;;;4.70;;
73954;SDS011;62306;52.516;13.290;2022-07-23T06:49:12;9.43;;;4.95;;
73954;SDS011;62306;52.516;13.290;2022-07-23T06:51:39;10.68;;;4.40;;
73954;SDS011;62306;52.516;13.290;2022-07-23T06:54:06;12.88;;;5.80;;
73954;SDS011;62306;52.516;13.290;2022-07-23T06:56:32;13.35;;;5.65;;
73954;SDS011;62306;52.516;13.290;2022-07-23T06:58:59;11.75;;;5.65;;
73954;SDS011;62306;52.516;13.290;2022-07-23T07:01:26;12.13;;;5.30;;
73954;SDS011;62306;52.516;13.290;2022-07-23T07:03:53;12.50;;;4.72;;
73954;SDS011;62306;52.516;13.290;2022-07-23T07:06:21;8.68;;;4.80;;
73954;SDS011;62306;52.516;13.290;2022-07-23T07:08:48;8.60;;;4.65;;
73954;SDS011;62306;52.516;13.290;2022-07-23T07:11:15;11.35;;;5.18;;
73954;SDS011;62306;52.516;13.290;2022-07-23T07:13:42;16.80;;;5.10;;
73954;SDS011;62306;52.516;13.290;2022-07-23T07:16:08;11.07;;;5.18;;
73954;SDS011;62306;52.516;13.290;2022-07-23T07:18:35;9.32;;;4.85;;
73954;SDS011;62306;52.516;13.290;2022-07-23T07:21:02;8.80;;;4.80;;
73954;SDS011;62306;52.516;13.290;2022-07-23T07:23:30;15.00;;;5.63;;
73954;SDS011;62306;52.516;13.290;2022-07-23T07:25:57;13.98;;;5.22;;
73954;SDS011;62306;52.516;13.290;2022-07-23T07:28:24;9.70;;;5.55;;
73954;SDS011;62306;52.516;13.290;2022-07-23T07:30:52;13.35;;;5.82;;
73954;SDS011;62306;52.516;13.290;2022-07-23T07:33:19;12.43;;;5.50;;
73954;SDS011;62306;52.516;13.290;2022-07-23T07:35:46;13.88;;;6.97;;
73954;SDS011;62306;52.516;13.290;2022-07-23T07:38:13;16.42;;;9.40;;
73954;SDS011;62306;52.516;13.290;2022-07-23T07:40:41;14.35;;;8.38;;
73954;SDS011;62306;52.516;13.290;2022-07-23T07:43:08;12.20;;;7.82;;
73954;SDS011;62306;52.516;13.290;2022-07-23T07:45:35;13.30;;;7.35;;
73954;SDS011;62306;52.516;13.290;2022-07-23T07:48:02;11.00;;;5.45;;
73954;SDS011;62306;52.516;13.290;2022-07-23T07:50:30;14.45;;;5.60;;
73954;SDS011;62306;52.516;13.290;2022-07-23T07:52:56;10.02;;;6.05;;
73954;SDS011;62306;52.516;13.290;2022-07-23T07:55:23;9.93;;;5.57;;
73954;SDS011;62306;52.516;13.290;2022-07-23T07:57:52;10.88;;;5.40;;
73954;SDS011;62306;52.516;13.290;2022-07-23T08:00:18;13.23;;;6.20;;
73954;SDS011;62306;52.516;13.290;2022-07-23T08:02:46;12.68;;;5.00;;
73954;SDS011;62306;52.516;13.290;2022-07-23T08:05:14;6.97;;;4.10;;
73954;SDS011;62306;52.516;13.290;2022-07-23T08:07:44;9.88;;;4.30;;
73954;SDS011;62306;52.516;13.290;2022-07-23T08:10:11;9.07;;;5.10;;
73954;SDS011;62306;52.516;13.290;2022-07-23T08:12:39;9.38;;;5.00;;
73954;SDS011;62306;52.516;13.290;2022-07-23T08:15:08;12.48;;;4.57;;
73954;SDS011;62306;52.516;13.290;2022-07-23T08:17:35;6.35;;;3.80;;
73954;SDS011;62306;52.516;13.290;2022-07-23T08:20:03;10.18;;;5.18;;
73954;SDS011;62306;52.516;13.290;2022-07-23T08:22:47;11.65;;;4.68;;
73954;SDS011;62306;52.516;13.290;2022-07-23T08:25:16;6.68;;;4.13;;
73954;SDS011;62306;52.516;13.290;2022-07-23T08:27:47;6.05;;;3.38;;
73954;SDS011;62306;52.516;13.290;2022-07-23T08:30:16;7.80;;;3.42;;
73954;SDS011;62306;52.516;13.290;2022-07-23T08:32:47;11.57;;;3.65;;
73954;SDS011;62306;52.516;13.290;2022-07-23T08:35:18;7.22;;;3.70;;
73954;SDS011;62306;52.516;13.290;2022-07-23T08:37:48;7.45;;;3.17;;
73954;SDS011;62306;52.516;13.290;2022-07-23T08:40:15;9.52;;;3.80;;
73954;SDS011;62306;52.516;13.290;2022-07-23T08:42:42;5.32;;;3.25;;
73954;SDS011;62306;52.516;13.290;2022-07-23T08:45:13;11.05;;;3.83;;
73954;SDS011;62306;52.516;13.290;2022-07-23T08:47:45;10.25;;;3.28;;
73954;SDS011;62306;52.516;13.290;2022-07-23T08:50:14;8.70;;;4.20;;
73954;SDS011;62306;52.516;13.290;2022-07-23T08:52:41;7.85;;;2.95;;
73954;SDS011;62306;52.516;13.290;2022-07-23T08:55:08;10.40;;;3.33;;
73954;SDS011;62306;52.516;13.290;2022-07-23T08:57:35;8.73;;;3.95;;
73954;SDS011;62306;52.516;13.290;2022-07-23T09:00:03;10.40;;;3.20;;
73954;SDS011;62306;52.516;13.290;2022-07-23T09:02:33;9.77;;;3.00;;
73954;SDS011;62306;52.516;13.290;2022-07-23T09:05:05;10.23;;;3.60;;
73954;SDS011;62306;52.516;13.290;2022-07-23T09:07:33;7.78;;;3.75;;
73954;SDS011;62306;52.516;13.290;2022-07-23T09:10:04;7.05;;;2.90;;
73954;SDS011;62306;52.516;13.290;2022-07-23T09:12:33;8.75;;;3.75;;
73954;SDS011;62306;52.516;13.290;2022-07-23T09:15:03;6.80;;;2.88;;
73954;SDS011;62306;52.516;13.290;2022-07-23T09:17:40;7.15;;;3.30;;
73954;SDS011;62306;52.516;13.290;2022-07-23T09:20:09;11.27;;;4.30;;
73954;SDS011;62306;52.516;13.290;2022-07-23T09:22:38;8.70;;;3.25;;
73954;SDS011;62306;52.516;13.290;2022-07-23T09:25:09;8.95;;;2.90;;
73954;SDS011;62306;52.516;13.290;2022-07-23T09:27:47;9.00;;;3.55;;
73954;SDS011;62306;52.516;13.290;2022-07-23T09:30:17;6.43;;;3.65;;
73954;SDS011;62306;52.516;13.290;2022-07-23T09:32:49;11.63;;;6.30;;
73954;SDS011;62306;52.516;13.290;2022-07-23T09:35:43;8.02;;;4.00;;
73954;SDS011;62306;52.516;13.290;2022-07-23T09:38:10;8.50;;;3.50;;
73954;SDS011;62306;52.516;13.290;2022-07-23T09:40:37;7.82;;;4.38;;
73954;SDS011;62306;52.516;13.290;2022-07-23T09:43:04;8.02;;;4.28;;
73954;SDS011;62306;52.516;13.290;2022-07-23T09:45:31;9.10;;;4.68;;
73954;SDS011;62306;52.516;13.290;2022-07-23T09:48:10;10.90;;;5.45;;
73954;SDS011;62306;52.516;13.290;2022-07-23T09:50:38;9.15;;;4.80;;
73954;SDS011;62306;52.516;13.290;2022-07-23T09:53:06;8.32;;;4.72;;
73954;SDS011;62306;52.516;13.290;2022-07-23T09:55:34;8.60;;;4.72;;
73954;SDS011;62306;52.516;13.290;2022-07-23T09:58:03;8.20;;;4.30;;
73954;SDS011;62306;52.516;13.290;2022-07-23T10:00:34;13.18;;;3.63;;
73954;SDS011;62306;52.516;13.290;2022-07-23T10:03:02;7.60;;;3.67;;
73954;SDS011;62306;52.516;13.290;2022-07-23T10:05:33;8.48;;;4.10;;
73954;SDS011;62306;52.516;13.290;2022-07-23T10:08:02;8.90;;;4.72;;
73954;SDS011;62306;52.516;13.290;2022-07-23T10:10:29;8.85;;;4.70;;
73954;SDS011;62306;52.516;13.290;2022-07-23T10:12:56;9.10;;;4.35;;
73954;SDS011;62306;52.516;13.290;2022-07-23T10:15:48;12.35;;;3.85;;
73954;SDS011;62306;52.516;13.290;2022-07-23T10:18:16;10.60;;;4.63;;
73954;SDS011;62306;52.516;13.290;2022-07-23T10:20:44;8.30;;;4.22;;
73954;SDS011;62306;52.516;13.290;2022-07-23T10:23:15;10.65;;;4.25;;
73954;SDS011;62306;52.516;13.290;2022-07-23T10:25:50;8.68;;;4.40;;
73954;SDS011;62306;52.516;13.290;2022-07-23T10:31:14;10.43;;;4.20;;
73954;SDS011;62306;52.516;13.290;2022-07-23T10:33:53;12.77;;;4.18;;
73954;SDS011;62306;52.516;13.290;2022-07-23T10:36:30;15.75;;;4.32;;
73954;SDS011;62306;52.516;13.290;2022-07-23T10:39:07;7.88;;;3.63;;
73954;SDS011;62306;52.516;13.290;2022-07-23T10:41:40;5.28;;;3.47;;
73954;SDS011;62306;52.516;13.290;2022-07-23T10:44:09;5.85;;;3.30;;
73954;SDS011;62306;52.516;13.290;2022-07-23T10:46:53;9.25;;;3.67;;
73954;SDS011;62306;52.516;13.290;2022-07-23T10:49:27;7.40;;;3.80;;
73954;SDS011;62306;52.516;13.290;2022-07-23T10:54:46;7.65;;;4.00;;
73954;SDS011;62306;52.516;13.290;2022-07-23T10:57:15;7.10;;;4.03;;
73954;SDS011;62306;52.516;13.290;2022-07-23T11:02:50;10.27;;;3.72;;
73954;SDS011;62306;52.516;13.290;2022-07-23T11:05:18;6.93;;;2.95;;
73954;SDS011;62306;52.516;13.290;2022-07-23T11:13:29;9.50;;;3.80;;
73954;SDS011;62306;52.516;13.290;2022-07-23T11:16:11;8.07;;;4.18;;
73954;SDS011;62306;52.516;13.290;2022-07-23T11:18:53;7.63;;;4.32;;
73954;SDS011;62306;52.516;13.290;2022-07-23T11:21:42;7.68;;;3.40;;
73954;SDS011;62306;52.516;13.290;2022-07-23T11:24:17;7.60;;;3.90;;
73954;SDS011;62306;52.516;13.290;2022-07-23T11:26:56;10.30;;;3.60;;
73954;SDS011;62306;52.516;13.290;2022-07-23T11:32:30;7.97;;;3.47;;
73954;SDS011;62306;52.516;13.290;2022-07-23T11:35:00;6.20;;;3.80;;
73954;SDS011;62306;52.516;13.290;2022-07-23T11:37:31;8.13;;;3.80;;
73954;SDS011;62306;52.516;13.290;2022-07-23T11:40:03;10.10;;;4.63;;
73954;SDS011;62306;52.516;13.290;2022-07-23T11:42:33;9.98;;;3.83;;
73954;SDS011;62306;52.516;13.290;2022-07-23T11:45:01;8.32;;;4.00;;
73954;SDS011;62306;52.516;13.290;2022-07-23T11:47:27;10.48;;;3.42;;
73954;SDS011;62306;52.516;13.290;2022-07-23T11:49:55;9.65;;;3.78;;
73954;SDS011;62306;52.516;13.290;2022-07-23T11:52:23;10.85;;;3.70;;
73954;SDS011;62306;52.516;13.290;2022-07-23T11:54:53;12.25;;;3.70;;
73954;SDS011;62306;52.516;13.290;2022-07-23T11:57:23;10.73;;;3.90;;
73954;SDS011;62306;52.516;13.290;2022-07-23T11:59:52;8.13;;;3.55;;
73954;SDS011;62306;52.516;13.290;2022-07-23T12:02:21;7.78;;;3.10;;
73954;SDS011;62306;52.516;13.290;2022-07-23T12:04:49;8.98;;;4.88;;
73954;SDS011;62306;52.516;13.290;2022-07-23T12:10:09;11.63;;;3.80;;
73954;SDS011;62306;52.516;13.290;2022-07-23T12:12:40;9.25;;;3.95;;
73954;SDS011;62306;52.516;13.290;2022-07-23T12:15:08;11.07;;;5.18;;
73954;SDS011;62306;52.516;13.290;2022-07-23T12:17:37;12.07;;;6.43;;
73954;SDS011;62306;52.516;13.290;2022-07-23T12:20:06;12.02;;;7.25;;
73954;SDS011;62306;52.516;13.290;2022-07-23T12:22:36;10.10;;;5.68;;
73954;SDS011;62306;52.516;13.290;2022-07-23T12:25:05;4.90;;;3.80;;
73954;SDS011;62306;52.516;13.290;2022-07-23T12:27:34;6.63;;;3.75;;
73954;SDS011;62306;52.516;13.290;2022-07-23T12:32:49;6.25;;;4.22;;
73954;SDS011;62306;52.516;13.290;2022-07-23T12:35:17;5.22;;;3.70;;
73954;SDS011;62306;52.516;13.290;2022-07-23T12:37:45;6.07;;;4.18;;
73954;SDS011;62306;52.516;13.290;2022-07-23T12:40:23;7.75;;;3.72;;
73954;SDS011;62306;52.516;13.290;2022-07-23T12:42:54;9.52;;;5.43;;
73954;SDS011;62306;52.516;13.290;2022-07-23T12:45:23;6.50;;;4.50;;
73954;SDS011;62306;52.516;13.290;2022-07-23T12:47:56;11.60;;;5.63;;
73954;SDS011;62306;52.516;13.290;2022-07-23T12:50:37;9.23;;;6.35;;
73954;SDS011;62306;52.516;13.290;2022-07-23T12:53:07;17.35;;;9.43;;
73954;SDS011;62306;52.516;13.290;2022-07-23T12:55:36;17.40;;;7.30;;
73954;SDS011;62306;52.516;13.290;2022-07-23T12:58:09;8.50;;;5.07;;
73954;SDS011;62306;52.516;13.290;2022-07-23T13:03:28;5.47;;;3.92;;
73954;SDS011;62306;52.516;13.290;2022-07-23T13:05:56;9.52;;;3.90;;
73954;SDS011;62306;52.516;13.290;2022-07-23T13:08:24;6.97;;;4.13;;
73954;SDS011;62306;52.516;13.290;2022-07-23T13:10:51;9.85;;;4.63;;
73954;SDS011;62306;52.516;13.290;2022-07-23T13:13:20;8.68;;;4.47;;
73954;SDS011;62306;52.516;13.290;2022-07-23T13:15:48;5.55;;;3.45;;
73954;SDS011;62306;52.516;13.290;2022-07-23T13:18:17;6.72;;;3.70;;
73954;SDS011;62306;52.516;13.290;2022-07-23T13:20:45;14.20;;;4.47;;
73954;SDS011;62306;52.516;13.290;2022-07-23T13:23:13;11.82;;;4.07;;
73954;SDS011;62306;52.516;13.290;2022-07-23T13:25:40;8.50;;;4.30;;
73954;SDS011;62306;52.516;13.290;2022-07-23T13:28:07;8.45;;;4.10;;
73954;SDS011;62306;52.516;13.290;2022-07-23T13:30:35;11.82;;;4.68;;
73954;SDS011;62306;52.516;13.290;2022-07-23T13:33:02;9.98;;;6.68;;
73954;SDS011;62306;52.516;13.290;2022-07-23T13:35:31;10.70;;;6.72;;
73954;SDS011;62306;52.516;13.290;2022-07-23T13:37:59;5.28;;;3.90;;
73954;SDS011;62306;52.516;13.290;2022-07-23T13:40:26;6.53;;;3.50;;
73954;SDS011;62306;52.516;13.290;2022-07-23T13:42:53;4.47;;;2.80;;
73954;SDS011;62306;52.516;13.290;2022-07-23T13:45:20;6.25;;;3.08;;
73954;SDS011;62306;52.516;13.290;2022-07-23T13:47:47;6.18;;;3.55;;
73954;SDS011;62306;52.516;13.290;2022-07-23T13:50:14;4.95;;;3.00;;
73954;SDS011;62306;52.516;13.290;2022-07-23T13:52:43;6.82;;;4.25;;
73954;SDS011;62306;52.516;13.290;2022-07-23T13:55:11;4.57;;;2.47;;
73954;SDS011;62306;52.516;13.290;2022-07-23T13:57:38;7.18;;;3.33;;
73954;SDS011;62306;52.516;13.290;2022-07-23T14:00:06;5.10;;;3.53;;
73954;SDS011;62306;52.516;13.290;2022-07-23T14:02:34;6.57;;;3.55;;
73954;SDS011;62306;52.516;13.290;2022-07-23T14:05:03;4.43;;;2.72;;
73954;SDS011;62306;52.516;13.290;2022-07-23T14:07:30;5.90;;;2.92;;
73954;SDS011;62306;52.516;13.290;2022-07-23T14:09:59;5.55;;;2.33;;
73954;SDS011;62306;52.516;13.290;2022-07-23T14:12:26;6.63;;;3.00;;
73954;SDS011;62306;52.516;13.290;2022-07-23T14:14:53;6.10;;;3.45;;
73954;SDS011;62306;52.516;13.290;2022-07-23T14:17:20;7.18;;;2.92;;
73954;SDS011;62306;52.516;13.290;2022-07-23T14:19:48;7.90;;;3.20;;
73954;SDS011;62306;52.516;13.290;2022-07-23T14:22:15;9.80;;;5.25;;
73954;SDS011;62306;52.516;13.290;2022-07-23T14:24:42;8.18;;;4.22;;
73954;SDS011;62306;52.516;13.290;2022-07-23T14:27:10;6.75;;;3.33;;
73954;SDS011;62306;52.516;13.290;2022-07-23T14:29:37;3.70;;;2.20;;
73954;SDS011;62306;52.516;13.290;2022-07-23T14:32:04;9.77;;;3.88;;
73954;SDS011;62306;52.516;13.290;2022-07-23T14:34:32;4.13;;;2.40;;
73954;SDS011;62306;52.516;13.290;2022-07-23T14:36:59;4.43;;;2.17;;
73954;SDS011;62306;52.516;13.290;2022-07-23T14:39:26;8.50;;;1.85;;
73954;SDS011;62306;52.516;13.290;2022-07-23T14:41:54;4.35;;;1.85;;
73954;SDS011;62306;52.516;13.290;2022-07-23T14:44:22;2.78;;;2.00;;
73954;SDS011;62306;52.516;13.290;2022-07-23T14:46:49;2.88;;;2.10;;
73954;SDS011;62306;52.516;13.290;2022-07-23T14:49:16;7.82;;;4.03;;
73954;SDS011;62306;52.516;13.290;2022-07-23T14:51:43;4.45;;;2.70;;
73954;SDS011;62306;52.516;13.290;2022-07-23T14:54:10;6.82;;;2.92;;
73954;SDS011;62306;52.516;13.290;2022-07-23T14:56:37;6.47;;;2.80;;
73954;SDS011;62306;52.516;13.290;2022-07-23T14:59:04;3.78;;;2.20;;
73954;SDS011;62306;52.516;13.290;2022-07-23T15:01:33;7.88;;;3.15;;